USTR 171730Z 22003MPS 9999 FEW///CB 10/10 Q1001 R21/290060 R30/////99 TEMPO 2100 BR
QNH:(hPa/inHg/mmHg)1001 / 29.56 / 751
QFE:(hPa/inHg/mmHg)987 / 29.15 / 740
Temperature10
Dew Point10
Visibility2100
WeatherMist
Cloud Cover
Transition Height700 m./2700 ft.
Transition LevelFL50
SQUAWK